Detall de PIREP

Printer-friendly versionPDF version

[2012/09/03 09:21:00]
Flight IATA:CT2106
Pilot Number:042
Company ICAO:CAT
Aircraft Type:F100/A
PAX:28
Aircraft Registration:PFJ
Departing Airport: LEVC
Destination Airport: LEMD
Alternate Airport:LEMG
Online: VATSIM
Route:CENTA A33 PRADO
Flight Level:F230
No Slew and time accel
No pause
Crash detect
Detect pilot in Cockpit between each 30 and 45 minutes
09:21 Zero fuel Weight: 81826 Lbs, Fuel Weight: 22687 Lbs
09:21 VATSIM:LEVC 030900Z 31004KT 270V340 CAVOK 24/05 Q1019 NOSIG
09:21 VATSIM:LEMD 030900Z 05011KT 010V090 CAVOK 19/08 Q1023 NOSIG
09:21 VOICE CATALONIAN
09:28 Parking Brakes off
09:32 Take-off
09:32 Take off Weight: 104162 Lbs
09:32 Wind: 312º @ 004 Knots Heading: 296º
09:32 POS N39º 29´ 37´´ W000º 29´ 37´´
09:32 Gear Up: 173 Knots
09:32 Flaps:2 at 173 Knots
09:32 Flaps:1 at 171 Knots
09:32 Flaps:0 at 217 Knots
09:44 TOC
09:44 Fuel Weight: 20608 Lb
09:45 TOD
09:45 Fuel Weight: 20535 Lb
09:47 Wind:355º@025 Knots Heading: 300º Ground Speed: 399 Knots Altitude 19192 ft
09:58 Flaps:1 at 185 Knots
10:00 Flaps:2 at 179 Knots
10:02 Wind:051º@014 Knots Heading: 321º Ground Speed: 173 Knots Altitude 4698 ft
10:02 Gear Down: 157 Knots
10:05 Flaps:3 at 135 Knots
10:06 TouchDown:Rate -288 ft/min Speed: 127 Knots
10:06 VATSIM:LEMD 030930Z 05012G23KT 020V100 CAVOK 20/08 Q1022 NOSIG
10:06 Land
10:06 Wind:053º@011 Knots
10:06 Heading: 319º
10:06 Flight Duration: 00:34
10:06 Landing Weight: 101298 Lbs
10:06 POS N40º 29´ 11´´ W003º 34´ 36´´
10:09 Parking brakes on
10:09 Block to Block Duration: 00:41
10:09 Final Fuel: 19301 Lbls
10:09 Spent Fuel: 3386 Lbls
10:09 Flight Length: 158 NM
10:09 TOD Land Length: 90 NM

Exportar CSV

Powered by Drupal - Modified by Danger4k